Time;durP1;ratioP1;P1;durP2;ratioP2;P2;SDS_P1;SDS_P2;PMS_P1;PMS_P2;Temp;Humidity;BMP_temperature;BMP_pressure;BME280_temperature;BME280_humidity;BME280_pressure;Samples;Min_cycle;Max_cycle;Signal;HPM_P1;HPM_P2
2024/01/22 21:48:17;;;;;;;;;6.00;5.00;;;;;;;;5145724;27;13314;-71
2024/01/22 21:50:42;;;;;;;;;2.75;1.50;;;;;;;;5146259;27;11413;-72
2024/01/22 21:53:08;;;;;;;;;2.00;1.00;;;;;;;;5149472;27;11391;-71
2024/01/22 21:55:34;;;;;;;;;4.00;4.00;;;;;;;;5130002;27;8897;-72
2024/01/22 21:57:59;;;;;;;;;4.75;1.25;;;;;;;;5149028;27;8817;-73
2024/01/22 22:00:24;;;;;;;;;3.50;1.25;;;;;;;;5149326;27;11398;-73
2024/01/22 22:02:50;;;;;;;;;3.50;2.00;;;;;;;;5149277;27;8888;-71
2024/01/22 22:05:15;;;;;;;;;4.50;3.00;;;;;;;;5148989;27;9626;-71
2024/01/22 22:07:42;;;;;;;;;4.00;4.00;;;;;;;;5149295;27;8814;-72
2024/01/22 22:10:08;;;;;;;;;2.00;2.00;;;;;;;;5149446;27;8766;-72
2024/01/22 22:12:37;;;;;;;;;4.50;4.00;;;;;;;;5149104;27;11399;-71
2024/01/22 22:15:03;;;;;;;;;4.25;3.00;;;;;;;;5149183;27;8770;-71
2024/01/22 22:17:28;;;;;;;;;7.50;2.00;;;;;;;;5149133;27;12252;-72
2024/01/22 22:19:53;;;;;;;;;5.50;4.50;;;;;;;;5149004;27;8870;-72
2024/01/22 22:22:19;;;;;;;;;4.00;4.00;;;;;;;;5148678;27;8769;-71
2024/01/22 22:24:44;;;;;;;;;7.75;2.50;;;;;;;;5148711;27;8791;-70
2024/01/22 22:27:09;;;;;;;;;5.00;5.00;;;;;;;;5130256;27;8840;-71
2024/01/22 22:29:35;;;;;;;;;2.00;2.00;;;;;;;;5148984;27;9557;-71
2024/01/22 22:32:00;;;;;;;;;5.00;5.00;;;;;;;;5148976;27;8779;-70
2024/01/22 22:34:26;;;;;;;;;7.50;5.00;;;;;;;;5130074;27;8814;-71
2024/01/22 22:36:51;;;;;;;;;6.75;4.00;;;;;;;;5148650;27;8895;-70
2024/01/22 22:39:16;;;;;;;;;4.25;4.25;;;;;;;;5148796;27;8877;-71
2024/01/22 22:41:42;;;;;;;;;4.00;4.00;;;;;;;;5148511;27;9547;-73
2024/01/22 22:44:07;;;;;;;;;4.25;3.50;;;;;;;;5148877;27;8790;-71
2024/01/22 22:46:32;;;;;;;;;4.00;2.00;;;;;;;;5148397;27;8807;-71
2024/01/22 22:48:57;;;;;;;;;4.00;4.00;;;;;;;;5148230;27;9750;-71
2024/01/22 22:51:23;;;;;;;;;2.00;1.75;;;;;;;;5148426;27;8855;-72
2024/01/22 22:53:48;;;;;;;;;3.00;3.00;;;;;;;;5148523;27;8888;-73
2024/01/22 22:56:13;;;;;;;;;4.25;1.50;;;;;;;;5148344;27;8811;-72
2024/01/22 22:58:39;;;;;;;;;4.00;4.00;;;;;;;;5140030;27;8774;-71
2024/01/22 23:01:04;;;;;;;;;5.00;3.00;;;;;;;;5134312;27;8774;-71
2024/01/22 23:03:30;;;;;;;;;4.50;3.00;;;;;;;;5134668;27;8794;-72
2024/01/22 23:05:55;;;;;;;;;7.75;2.00;;;;;;;;5133388;27;8805;-72
2024/01/22 23:08:21;;;;;;;;;5.00;4.00;;;;;;;;5132499;27;8876;-72
2024/01/22 23:10:46;;;;;;;;;3.50;2.00;;;;;;;;5046605;28;10721;-72
2024/01/22 23:13:14;;;;;;;;;5.00;4.00;;;;;;;;5088907;28;9613;-72
2024/01/22 23:15:40;;;;;;;;;2.00;2.00;;;;;;;;5087966;28;8823;-72
2024/01/22 23:18:05;;;;;;;;;6.75;2.50;;;;;;;;5088765;28;11388;-71
2024/01/22 23:20:30;;;;;;;;;4.00;4.00;;;;;;;;5087985;28;8802;-72
2024/01/22 23:22:56;;;;;;;;;4.00;2.00;;;;;;;;5088895;28;8917;-71
2024/01/22 23:25:22;;;;;;;;;4.75;2.00;;;;;;;;5087983;28;8880;-72
2024/01/22 23:27:47;;;;;;;;;6.50;4.00;;;;;;;;5090136;28;8840;-72
2024/01/22 23:30:13;;;;;;;;;1.25;1.25;;;;;;;;5072860;28;11414;-72
2024/01/22 23:32:38;;;;;;;;;1.50;1.50;;;;;;;;5090895;28;9511;-72
2024/01/22 23:35:04;;;;;;;;;4.00;4.00;;;;;;;;5090801;28;8778;-72
2024/01/22 23:37:29;;;;;;;;;4.50;2.00;;;;;;;;5089749;28;8902;-72
2024/01/22 23:39:55;;;;;;;;;2.00;2.00;;;;;;;;5090591;28;8806;-72
2024/01/22 23:42:21;;;;;;;;;2.00;2.00;;;;;;;;5073769;28;8778;-72
2024/01/22 23:44:49;;;;;;;;;4.00;3.00;;;;;;;;5092920;28;9515;-72
2024/01/22 23:47:14;;;;;;;;;2.00;1.00;;;;;;;;5092703;28;11538;-72
2024/01/22 23:49:39;;;;;;;;;2.00;2.00;;;;;;;;5104613;28;12157;-71
